createdAt,value
2023-05-01T00:03:00.057Z,11.5
2023-05-01T00:18:00.008Z,11.6
2023-05-01T00:33:00.035Z,11.4
2023-05-01T00:48:00.031Z,11.4
2023-05-01T01:03:00.051Z,11.4
2023-05-01T01:18:00.045Z,11.6
2023-05-01T01:33:00.033Z,11.6
2023-05-01T01:48:00.065Z,11.7
2023-05-01T02:03:00.068Z,11.8
2023-05-01T02:18:00.051Z,11.8
2023-05-01T02:33:00.028Z,11.7
2023-05-01T02:48:00.118Z,11.5
2023-05-01T03:03:00.023Z,11.4
2023-05-01T03:18:00.251Z,11.2
2023-05-01T03:33:00.030Z,11.1
2023-05-01T03:48:00.031Z,11
2023-05-01T04:03:00.059Z,10.8
2023-05-01T04:18:00.046Z,10.8
2023-05-01T04:33:00.087Z,10.9
2023-05-01T04:48:00.023Z,11.1
2023-05-01T05:03:00.121Z,11
2023-05-01T05:18:00.046Z,11.2
2023-05-01T05:33:00.067Z,11.4
2023-05-01T05:48:00.101Z,11.8
2023-05-01T06:03:00.088Z,12.1
2023-05-01T06:18:00.041Z,12.4
2023-05-01T06:33:00.019Z,13
2023-05-01T06:48:00.042Z,13.4
2023-05-01T07:03:00.094Z,13.4
2023-05-01T07:18:00.058Z,13.8
2023-05-01T07:33:00.028Z,13.9
2023-05-01T07:48:00.096Z,14.1
2023-05-01T08:03:00.036Z,14.5
2023-05-01T08:18:00.094Z,15
2023-05-01T08:33:00.044Z,15.3
2023-05-01T08:48:00.051Z,16.1
2023-05-01T09:03:00.046Z,16
2023-05-01T09:18:01.628Z,16
2023-05-01T09:33:00.016Z,16
2023-05-01T09:48:00.053Z,16.4
2023-05-01T10:03:00.067Z,16.4
2023-05-01T10:18:00.034Z,16.7
2023-05-01T10:33:00.089Z,17.1
2023-05-01T10:48:00.093Z,18
2023-05-01T11:02:59.996Z,17.4
2023-05-01T11:18:00.051Z,17.2
2023-05-01T11:33:00.078Z,17.3
2023-05-01T11:48:02.966Z,18.1
2023-05-01T12:03:00.089Z,18.2
2023-05-01T12:18:00.029Z,17.8
2023-05-01T12:33:00.040Z,18.7
2023-05-01T12:48:00.024Z,18.8
2023-05-01T13:03:00.053Z,15.6
2023-05-01T13:18:00.014Z,14.8
2023-05-01T13:33:00.046Z,14.1
2023-05-01T13:48:00.032Z,12.6
2023-05-01T14:03:00.125Z,13.7
2023-05-01T14:17:59.989Z,14.8
2023-05-01T14:33:00.031Z,15.4
2023-05-01T14:48:00.089Z,15.8
2023-05-01T15:03:00.150Z,15.4
2023-05-01T15:18:00.111Z,14.5
2023-05-01T15:33:00.144Z,11.4
2023-05-01T15:48:00.100Z,11.2
2023-05-01T16:03:00.081Z,12.9
2023-05-01T16:18:00.125Z,12.9
2023-05-01T16:33:00.058Z,12.2
2023-05-01T16:48:00.084Z,11.9
2023-05-01T17:03:00.011Z,12.4
2023-05-01T17:18:00.042Z,13.1
2023-05-01T17:33:00.076Z,13.3
2023-05-01T17:48:00.070Z,13.1
2023-05-01T18:03:00.176Z,12.6
2023-05-01T18:18:00.039Z,12.6
2023-05-01T18:33:00.050Z,12.4
2023-05-01T18:48:00.076Z,12.2
2023-05-01T19:03:00.047Z,11.1
2023-05-01T19:18:00.040Z,11.2
2023-05-01T19:33:00.177Z,11
2023-05-01T19:48:00.077Z,10.8
2023-05-01T20:03:00.041Z,10.8
2023-05-01T20:18:00.065Z,10.8
2023-05-01T20:33:00.029Z,10.6
2023-05-01T20:48:00.068Z,10.9
2023-05-01T21:03:00.159Z,10.8
2023-05-01T21:18:00.019Z,10.9
2023-05-01T21:33:00.059Z,10.9
2023-05-01T21:48:00.025Z,10.9
2023-05-01T22:03:00.109Z,10.6
2023-05-01T22:18:00.031Z,10.4
2023-05-01T22:33:00.070Z,10.2
2023-05-01T22:48:00.068Z,10.1
2023-05-01T23:03:00.091Z,9.9
2023-05-01T23:18:00.067Z,9.7
2023-05-01T23:33:00.014Z,9.4
2023-05-01T23:48:00.074Z,9.2
